Palmeira d'Oeste, Brazil
Current Conditions -  °F | °C
As of 10:00 AM on Friday 28 Nov 2014 (Local Time) from SBSR Reporting Station
Broken Clouds Broken Clouds  
Wind Chill: 73°   Ceiling: 1100
Heat Index: 73°   Visibility: 6mi
Dew Point: 68°   Wind: 7mph
Humidity: 83%   Direction: 60°ENE
Pressure: 30"   Gusts: NA
Location:  20.42°S, 50.76°W
Report Text: SBSR 281200Z 06006KT 9999 SCT008 BKN011 BKN080 23/20 Q1016
Loading
Personal Weather Stations






























Interactive Weather Map New forecast layout! Learn more

10-Day Weather Forecast

Advertisements
Track Severe Weather on mobile